Time;durP1;ratioP1;P1;durP2;ratioP2;P2;SDS_P1;SDS_P2;PMS_P1;PMS_P2;Temp;Humidity;BMP_temperature;BMP_pressure;BME280_temperature;BME280_humidity;BME280_pressure;Samples;Min_cycle;Max_cycle;Signal;HPM_P1;HPM_P2
2021/11/08 00:00:24;;;;;;;13.27;7.95;;;25.70;98.80;;;;;;4157561;28;20053;-67
2021/11/08 00:02:28;;;;;;;13.10;7.07;;;25.80;98.70;;;;;;4148944;28;20054;-67
2021/11/08 00:04:35;;;;;;;14.88;7.80;;;25.80;98.80;;;;;;4157497;28;20038;-68
2021/11/08 00:06:42;;;;;;;21.90;12.38;;;25.80;98.60;;;;;;4162092;28;20044;-68
2021/11/08 00:08:47;;;;;;;19.45;10.68;;;25.70;98.80;;;;;;4162057;28;20461;-67
2021/11/08 00:10:56;;;;;;;18.48;10.23;;;25.60;99.10;;;;;;4156716;28;20132;-68
2021/11/08 00:13:04;;;;;;;16.63;7.97;;;25.50;99.60;;;;;;4153831;28;20504;-68
2021/11/08 00:21:03;;;;;;;14.85;7.93;;;25.50;99.90;;;;;;4210652;27;20663;-67
2021/11/08 00:35:23;;;;;;;12.67;8.70;;;25.50;99.90;;;;;;4156455;27;1975816;-72
2021/11/08 00:37:28;;;;;;;12.38;8.80;;;25.80;99.90;;;;;;4197808;28;20301;-73
2021/11/08 00:39:32;;;;;;;11.40;8.35;;;25.70;99.90;;;;;;4198043;28;20086;-71
2021/11/08 00:41:40;;;;;;;13.65;7.72;;;25.80;99.90;;;;;;4196002;28;20403;-72
2021/11/08 00:43:45;;;;;;;20.83;7.28;;;25.80;99.70;;;;;;4185342;28;20091;-72
2021/11/08 00:45:49;;;;;;;11.57;7.20;;;25.90;99.50;;;;;;4202277;28;20482;-70
2021/11/08 00:47:55;;;;;;;13.68;7.13;;;26.00;99.30;;;;;;4193986;28;20102;-71
2021/11/08 00:50:00;;;;;;;12.35;7.07;;;26.10;98.80;;;;;;4193922;28;20040;-71
2021/11/08 00:52:08;;;;;;;13.30;7.75;;;26.20;98.70;;;;;;4191964;28;20514;-71
2021/11/08 00:54:15;;;;;;;11.75;7.32;;;26.20;98.70;;;;;;4193957;28;20110;-71
2021/11/08 00:56:22;;;;;;;13.05;6.68;;;26.20;98.60;;;;;;4193221;28;20501;-71
2021/11/08 00:58:36;;;;;;;11.95;6.20;;;26.00;98.40;;;;;;4190021;28;20418;-73
2021/11/08 01:00:41;;;;;;;13.13;6.57;;;26.00;98.80;;;;;;4193208;28;20341;-71
2021/11/08 01:02:45;;;;;;;9.50;6.03;;;26.20;98.30;;;;;;4195639;28;20405;-71
2021/11/08 01:04:51;;;;;;;10.05;6.18;;;26.30;97.70;;;;;;4203029;28;20106;-71
2021/11/08 01:07:02;;;;;;;11.50;5.88;;;26.30;97.20;;;;;;4193182;28;20036;-71
2021/11/08 01:09:06;;;;;;;12.00;6.38;;;26.30;97.70;;;;;;4191973;28;20110;-71
2021/11/08 01:11:11;;;;;;;9.52;6.03;;;26.40;97.20;;;;;;4198396;28;20102;-71
2021/11/08 01:13:16;;;;;;;9.55;6.18;;;26.40;97.00;;;;;;4202678;28;20103;-71
2021/11/08 01:15:21;;;;;;;11.15;6.10;;;26.50;97.00;;;;;;4200341;28;20125;-71
2021/11/08 01:17:26;;;;;;;12.43;6.68;;;26.50;96.90;;;;;;4198861;28;20099;-71
2021/11/08 01:19:34;;;;;;;11.52;6.38;;;26.50;96.60;;;;;;4192818;28;20502;-71
2021/11/08 01:21:39;;;;;;;12.32;6.20;;;26.60;96.60;;;;;;4200290;28;20044;-71
2021/11/08 01:23:44;;;;;;;13.57;6.93;;;26.60;96.50;;;;;;4200420;28;20095;-71
2021/11/08 01:26:00;;;;;;;13.50;7.85;;;26.70;96.50;;;;;;4202650;28;20127;-71
2021/11/08 01:28:05;;;;;;;13.57;6.57;;;26.80;96.50;;;;;;4188348;28;20041;-71
2021/11/08 01:30:15;;;;;;;9.43;5.97;;;26.80;96.40;;;;;;4192732;28;20514;-71
2021/11/08 01:32:20;;;;;;;12.82;6.30;;;26.80;96.00;;;;;;4188340;28;20465;-71
2021/11/08 01:34:25;;;;;;;8.85;5.05;;;26.80;95.80;;;;;;4186539;28;20045;-71
2021/11/08 01:36:36;;;;;;;10.13;4.93;;;26.80;95.70;;;;;;4177688;28;20456;-71
2021/11/08 01:38:49;;;;;;;8.85;5.00;;;26.80;96.10;;;;;;4180071;28;20411;-72
2021/11/08 01:40:54;;;;;;;9.95;5.40;;;26.90;95.80;;;;;;4174458;28;20053;-73
2021/11/08 01:42:59;;;;;;;9.13;5.15;;;27.00;95.50;;;;;;4180860;28;20091;-72
2021/11/08 01:45:04;;;;;;;10.88;5.25;;;27.10;95.10;;;;;;4177802;28;20083;-70
2021/11/08 01:47:09;;;;;;;11.35;5.03;;;27.10;95.30;;;;;;4179183;28;20051;-71
2021/11/08 01:49:14;;;;;;;8.15;4.60;;;27.20;95.10;;;;;;4175058;28;20120;-73
2021/11/08 01:51:19;;;;;;;10.65;4.70;;;27.30;94.90;;;;;;4173101;28;20052;-73
2021/11/08 01:53:25;;;;;;;11.13;5.68;;;27.30;94.90;;;;;;4177032;28;20037;-71
2021/11/08 01:55:33;;;;;;;6.90;4.28;;;27.30;94.90;;;;;;4178219;28;20053;-70
2021/11/08 01:57:38;;;;;;;9.15;4.90;;;27.40;94.30;;;;;;4177384;28;20095;-71
2021/11/08 01:59:43;;;;;;;10.50;5.03;;;27.40;94.50;;;;;;4178238;28;20045;-70
2021/11/08 02:01:48;;;;;;;8.88;4.70;;;27.50;94.30;;;;;;4177831;28;20510;-71
2021/11/08 02:03:53;;;;;;;9.27;5.50;;;27.50;94.00;;;;;;4177075;28;20572;-72
2021/11/08 02:05:58;;;;;;;9.82;5.28;;;27.60;93.90;;;;;;4174449;28;20079;-72
2021/11/08 02:08:02;;;;;;;7.05;4.50;;;27.50;93.50;;;;;;4173148;28;20049;-71
2021/11/08 02:10:09;;;;;;;9.48;4.85;;;27.60;93.40;;;;;;4174749;28;20048;-70
2021/11/08 02:12:15;;;;;;;6.55;4.22;;;27.70;93.40;;;;;;4172388;28;20037;-71
2021/11/08 02:14:19;;;;;;;9.10;4.65;;;27.70;92.80;;;;;;4175152;28;20180;-69
2021/11/08 02:16:24;;;;;;;11.00;4.40;;;27.70;92.60;;;;;;4176822;28;20045;-73
2021/11/08 02:18:29;;;;;;;14.95;4.90;;;27.80;92.80;;;;;;4174404;28;20053;-74
2021/11/08 02:20:33;;;;;;;10.50;4.55;;;27.90;92.70;;;;;;4176808;28;20123;-75
2021/11/08 02:22:38;;;;;;;7.25;4.68;;;27.90;92.50;;;;;;4177919;28;20051;-75
2021/11/08 02:24:42;;;;;;;10.00;4.50;;;27.90;92.30;;;;;;4177188;28;20064;-75
2021/11/08 02:26:48;;;;;;;7.15;4.15;;;27.90;92.00;;;;;;4175914;28;20124;-74
2021/11/08 02:29:58;;;;;;;10.38;4.40;;;28.00;91.70;;;;;;4162394;27;2725416;-75
2021/11/08 02:32:23;;;;;;;8.85;4.10;;;28.10;92.20;;;;;;4229175;28;20043;-76
2021/11/08 02:34:27;;;;;;;9.15;4.22;;;28.10;91.60;;;;;;4229337;27;20058;-75
2021/11/08 02:36:50;;;;;;;14.35;5.30;;;28.20;91.50;;;;;;4229304;28;20108;-77
2021/11/08 02:38:56;;;;;;;10.98;4.30;;;28.10;91.60;;;;;;4233991;28;20048;-76
2021/11/08 02:41:01;;;;;;;9.48;4.53;;;28.10;91.70;;;;;;4228794;28;20039;-75
2021/11/08 02:43:06;;;;;;;7.60;4.47;;;28.10;91.50;;;;;;4233585;27;20539;-76
2021/11/08 02:45:11;;;;;;;7.25;4.32;;;28.20;90.80;;;;;;4237078;28;20114;-76
2021/11/08 02:47:20;;;;;;;8.55;3.67;;;28.10;91.30;;;;;;4232365;28;20043;-75
2021/11/08 02:49:29;;;;;;;6.53;4.18;;;28.10;91.50;;;;;;4237472;27;20082;-74
2021/11/08 02:51:34;;;;;;;14.43;4.70;;;28.10;91.20;;;;;;4236509;27;20042;-74
2021/11/08 02:53:42;;;;;;;5.07;3.95;;;28.10;91.10;;;;;;4232583;27;20374;-74
2021/11/08 02:55:48;;;;;;;9.15;4.82;;;28.10;91.00;;;;;;4234706;28;20048;-74
2021/11/08 02:57:54;;;;;;;8.00;4.22;;;28.20;91.30;;;;;;4231887;28;20040;-74
2021/11/08 03:00:00;;;;;;;6.85;4.03;;;28.10;91.00;;;;;;4235360;28;20051;-74
2021/11/08 03:02:07;;;;;;;6.55;4.15;;;28.20;90.90;;;;;;4234542;28;20748;-77
2021/11/08 03:04:16;;;;;;;8.45;4.50;;;28.30;91.00;;;;;;4227736;28;20055;-75
2021/11/08 03:06:29;;;;;;;8.90;4.80;;;28.30;91.20;;;;;;4230313;28;20489;-78
2021/11/08 03:08:33;;;;;;;10.93;4.07;;;28.40;90.80;;;;;;4236238;28;20048;-75
2021/11/08 03:10:39;;;;;;;8.40;4.55;;;28.50;90.80;;;;;;4228402;28;20047;-76
2021/11/08 03:12:45;;;;;;;10.65;4.30;;;28.50;90.50;;;;;;4241053;28;20040;-74
2021/11/08 03:15:07;;;;;;;10.05;4.00;;;28.60;90.30;;;;;;4236076;28;20036;-74
2021/11/08 03:17:15;;;;;;;7.63;4.90;;;28.60;90.20;;;;;;4233294;27;20032;-75
2021/11/08 03:19:25;;;;;;;9.60;5.28;;;28.70;90.20;;;;;;4235320;28;20048;-74
2021/11/08 03:21:31;;;;;;;11.30;4.65;;;28.70;89.80;;;;;;4235071;27;20099;-75
2021/11/08 03:23:37;;;;;;;9.32;5.45;;;28.70;90.10;;;;;;4234907;28;20048;-75
2021/11/08 03:26:03;;;;;;;18.85;9.88;;;28.70;90.00;;;;;;4230654;27;20047;-74
2021/11/08 03:28:08;;;;;;;19.70;10.70;;;28.80;90.20;;;;;;4233561;28;20035;-74
2021/11/08 03:30:17;;;;;;;14.35;7.50;;;28.90;90.30;;;;;;4231171;28;20071;-74
2021/11/08 03:32:22;;;;;;;14.45;6.35;;;28.90;90.30;;;;;;4233698;28;20040;-74
2021/11/08 03:34:29;;;;;;;12.63;6.03;;;29.00;90.30;;;;;;4231900;28;20047;-74
2021/11/08 03:36:33;;;;;;;9.75;5.20;;;29.00;90.50;;;;;;4232310;28;20043;-74
2021/11/08 03:38:39;;;;;;;10.85;4.65;;;29.00;90.40;;;;;;4232276;28;20031;-73
2021/11/08 03:40:45;;;;;;;9.13;4.13;;;29.10;89.90;;;;;;4224319;28;20051;-74
2021/11/08 03:42:54;;;;;;;8.88;4.57;;;29.00;89.00;;;;;;4214307;28;20093;-74
2021/11/08 03:44:59;;;;;;;7.20;3.90;;;29.10;89.30;;;;;;4215118;28;20044;-75
2021/11/08 03:47:03;;;;;;;12.70;4.70;;;29.10;89.50;;;;;;4219513;28;20041;-75
2021/11/08 03:49:08;;;;;;;10.88;4.05;;;29.20;89.80;;;;;;4222052;28;20056;-76
2021/11/08 03:51:12;;;;;;;9.48;4.38;;;29.20;89.70;;;;;;4217368;27;20578;-75
2021/11/08 03:53:17;;;;;;;6.90;3.83;;;29.20;88.70;;;;;;4211081;28;20111;-75
2021/11/08 04:06:31;;;;;;;7.22;3.90;;;29.20;87.80;;;;;;4150712;28;20895;-72
2021/11/08 04:08:37;;;;;;;5.57;3.90;;;29.50;88.90;;;;;;4153156;28;20427;-71
2021/11/08 04:10:42;;;;;;;14.90;4.68;;;29.50;89.50;;;;;;4159200;28;20053;-69
2021/11/08 04:12:47;;;;;;;10.90;4.30;;;29.50;89.50;;;;;;4157686;28;20565;-70
2021/11/08 04:14:53;;;;;;;7.28;3.78;;;29.50;89.90;;;;;;4158843;28;20034;-69
2021/11/08 04:16:58;;;;;;;7.68;3.92;;;29.60;88.90;;;;;;4158853;28;20049;-69
2021/11/08 04:19:03;;;;;;;9.85;4.45;;;29.60;89.00;;;;;;4155738;28;20120;-68
2021/11/08 04:21:10;;;;;;;8.70;4.10;;;29.70;89.20;;;;;;4155109;28;20037;-70
2021/11/08 04:23:19;;;;;;;9.15;4.90;;;29.80;88.70;;;;;;4156668;28;20346;-67
2021/11/08 04:25:24;;;;;;;6.75;4.38;;;29.90;88.80;;;;;;4154642;28;20073;-68
2021/11/08 04:27:29;;;;;;;7.60;3.90;;;29.90;87.90;;;;;;4156663;28;20141;-67
2021/11/08 04:29:33;;;;;;;9.57;4.28;;;29.90;86.90;;;;;;4156153;28;20576;-68
2021/11/08 04:31:38;;;;;;;9.07;3.88;;;30.00;86.20;;;;;;4155939;28;20528;-67
2021/11/08 04:33:55;;;;;;;7.80;4.40;;;30.10;85.70;;;;;;4156406;28;20462;-68
2021/11/08 04:40:25;;;;;;;6.50;4.18;;;30.00;83.70;;;;;;4155370;28;20663;-67
2021/11/08 04:51:53;;;;;;;6.68;3.67;;;29.90;85.50;;;;;;4154050;28;20050;-67
2021/11/08 04:59:02;;;;;;;9.25;3.30;;;30.00;83.30;;;;;;4171456;28;20051;-68
2021/11/08 05:23:00;;;;;;;8.48;3.83;;;30.20;83.00;;;;;;4187501;28;20491;-71
2021/11/08 05:25:25;;;;;;;6.18;3.40;;;30.20;83.40;;;;;;4185046;28;20048;-71
2021/11/08 05:32:06;;;;;;;8.77;3.95;;;30.00;83.50;;;;;;4185443;28;20297;-72
2021/11/08 05:34:12;;;;;;;6.68;3.75;;;30.00;83.70;;;;;;4188644;28;20075;-71
2021/11/08 05:36:18;;;;;;;7.68;4.00;;;30.00;83.70;;;;;;4181065;28;20563;-70
2021/11/08 05:38:24;;;;;;;5.10;3.15;;;29.90;83.80;;;;;;3280953;28;10000363;-70
2021/11/08 05:40:31;;;;;;;5.78;3.15;;;29.80;83.60;;;;;;4155146;28;20389;-71
2021/11/08 05:42:36;;;;;;;9.05;3.70;;;29.70;84.00;;;;;;4149132;28;20056;-70
2021/11/08 05:44:41;;;;;;;4.68;3.00;;;29.80;84.20;;;;;;4149064;28;20846;-70
2021/11/08 05:46:45;;;;;;;7.25;3.20;;;29.80;83.60;;;;;;4142153;28;20458;-70
2021/11/08 05:48:50;;;;;;;7.03;3.10;;;29.80;84.40;;;;;;4152718;28;20052;-70
2021/11/08 05:50:55;;;;;;;9.25;3.53;;;29.90;84.30;;;;;;4153653;28;20091;-70
2021/11/08 05:52:59;;;;;;;9.48;3.15;;;30.00;84.30;;;;;;4150289;28;20072;-70
2021/11/08 05:55:04;;;;;;;8.05;2.63;;;30.00;84.40;;;;;;4147954;28;20548;-70
2021/11/08 07:00:04;;;;;;;7.70;4.50;;;30.40;83.60;;;;;;4237774;27;20423;-75
2021/11/08 07:02:13;;;;;;;11.23;6.65;;;30.40;86.00;;;;;;4235940;28;20048;-74
2021/11/08 07:04:19;;;;;;;7.85;5.80;;;30.50;86.60;;;;;;4233775;28;20123;-75
2021/11/08 07:06:23;;;;;;;9.32;5.68;;;30.40;86.30;;;;;;4211023;28;20539;-74
2021/11/08 07:08:28;;;;;;;8.43;5.25;;;30.40;86.30;;;;;;4237404;28;20043;-75
2021/11/08 07:10:34;;;;;;;12.98;4.40;;;30.40;86.40;;;;;;4221252;28;20083;-75
2021/11/08 07:12:45;;;;;;;10.85;5.15;;;30.30;86.40;;;;;;4236782;28;20073;-76
2021/11/08 07:14:50;;;;;;;9.30;3.83;;;30.30;86.70;;;;;;4219876;28;20481;-75
2021/11/08 07:16:55;;;;;;;5.63;3.83;;;30.30;86.70;;;;;;4215476;28;20068;-74
2021/11/08 07:19:00;;;;;;;11.35;4.40;;;30.30;86.40;;;;;;4234230;28;20111;-74
2021/11/08 07:21:05;;;;;;;6.47;3.97;;;30.30;86.40;;;;;;4239530;28;20516;-76
2021/11/08 07:23:09;;;;;;;7.57;3.65;;;30.40;86.10;;;;;;4238454;28;20088;-76
2021/11/08 07:25:14;;;;;;;5.47;3.63;;;30.30;85.80;;;;;;4232542;28;20569;-75
2021/11/08 07:27:19;;;;;;;10.38;4.65;;;30.30;85.80;;;;;;4234016;28;20131;-75
2021/11/08 07:29:25;;;;;;;8.15;5.15;;;30.20;85.60;;;;;;4222197;28;20041;-75
2021/11/08 07:31:30;;;;;;;8.80;5.45;;;30.20;86.00;;;;;;4240347;28;20043;-76
2021/11/08 07:33:36;;;;;;;13.50;4.30;;;30.30;85.80;;;;;;4236818;28;20042;-76
2021/11/08 07:35:43;;;;;;;8.02;4.10;;;30.20;86.00;;;;;;4228476;28;20567;-75
2021/11/08 07:37:49;;;;;;;10.02;4.30;;;30.20;86.10;;;;;;4228894;28;20109;-75
2021/11/08 07:39:54;;;;;;;8.90;4.20;;;30.30;86.30;;;;;;4235347;28;20040;-76
2021/11/08 07:41:59;;;;;;;9.40;4.03;;;30.30;86.50;;;;;;4220230;28;20071;-76
2021/11/08 07:44:04;;;;;;;8.30;4.35;;;30.30;87.10;;;;;;4227126;28;20073;-77
2021/11/08 07:46:08;;;;;;;8.55;4.82;;;30.40;87.60;;;;;;4232363;28;20050;-75
2021/11/08 07:48:15;;;;;;;7.85;4.82;;;30.40;87.20;;;;;;4217903;28;20417;-74
2021/11/08 07:50:19;;;;;;;11.48;5.97;;;30.40;87.10;;;;;;4216665;28;20055;-74
2021/11/08 07:52:24;;;;;;;7.65;4.82;;;30.40;87.00;;;;;;4220466;28;20126;-75
2021/11/08 07:54:31;;;;;;;10.10;5.35;;;30.40;87.00;;;;;;4237690;28;20036;-76
2021/11/08 07:56:37;;;;;;;8.38;4.70;;;30.40;87.10;;;;;;4220084;28;20153;-75
2021/11/08 07:58:42;;;;;;;9.45;5.05;;;30.30;87.10;;;;;;4233211;28;20044;-74
2021/11/08 08:00:46;;;;;;;8.75;5.30;;;30.30;87.70;;;;;;4226807;28;20104;-75
2021/11/08 08:02:51;;;;;;;9.88;4.80;;;30.30;88.00;;;;;;4221643;28;20451;-74
2021/11/08 08:04:56;;;;;;;6.63;4.22;;;30.30;88.30;;;;;;4222631;28;20047;-74
2021/11/08 08:07:00;;;;;;;5.40;3.65;;;30.30;88.40;;;;;;4220446;28;20056;-74
2021/11/08 08:09:06;;;;;;;8.15;4.22;;;30.30;88.50;;;;;;4224085;28;20046;-74
2021/11/08 08:11:10;;;;;;;7.75;3.83;;;30.30;89.40;;;;;;4222416;28;20042;-74
2021/11/08 08:13:16;;;;;;;10.30;4.32;;;30.20;88.70;;;;;;4220774;28;20549;-73
2021/11/08 08:15:21;;;;;;;9.65;4.53;;;30.30;89.00;;;;;;4223949;28;20052;-74
2021/11/08 08:17:25;;;;;;;7.85;4.13;;;30.30;89.10;;;;;;4225658;28;20050;-74
2021/11/08 08:19:31;;;;;;;7.47;4.00;;;30.20;89.20;;;;;;4224038;28;20532;-74
2021/11/08 08:21:36;;;;;;;13.25;4.75;;;30.20;89.40;;;;;;4222075;28;20044;-74
2021/11/08 08:23:41;;;;;;;8.77;3.92;;;30.30;89.80;;;;;;4223286;28;20048;-74
2021/11/08 08:25:46;;;;;;;8.32;4.20;;;30.20;90.00;;;;;;4220875;28;20127;-74
2021/11/08 08:27:51;;;;;;;6.90;4.25;;;30.30;90.10;;;;;;4188995;28;20437;-73
2021/11/08 08:29:55;;;;;;;6.32;4.13;;;30.20;90.20;;;;;;4223776;28;20036;-73
2021/11/08 08:32:00;;;;;;;6.20;4.05;;;30.20;90.50;;;;;;4205447;28;20072;-73
2021/11/08 08:34:22;;;;;;;12.07;4.18;;;30.10;90.70;;;;;;4221912;28;20035;-73
2021/11/08 08:36:27;;;;;;;7.10;4.47;;;30.10;91.20;;;;;;4220446;28;20092;-74
2021/11/08 08:38:32;;;;;;;8.45;4.38;;;30.10;91.00;;;;;;4223270;28;20047;-74
2021/11/08 08:40:37;;;;;;;7.53;4.57;;;30.10;91.00;;;;;;4204862;28;20052;-74
2021/11/08 08:42:41;;;;;;;5.63;4.57;;;30.10;91.20;;;;;;4223491;28;20048;-74
2021/11/08 08:44:46;;;;;;;7.45;5.00;;;30.10;91.20;;;;;;4226051;28;20048;-73
2021/11/08 08:46:50;;;;;;;11.25;5.75;;;30.10;91.40;;;;;;4223417;28;20054;-76
2021/11/08 08:48:58;;;;;;;9.70;5.50;;;30.00;91.60;;;;;;4218004;28;20093;-76
2021/11/08 08:51:03;;;;;;;10.40;5.95;;;30.00;91.70;;;;;;4219607;28;20032;-74
2021/11/08 08:53:10;;;;;;;10.55;6.15;;;30.00;91.60;;;;;;4221999;28;20043;-74
2021/11/08 08:55:15;;;;;;;9.30;5.70;;;30.00;91.70;;;;;;4203428;28;20053;-75
2021/11/08 08:57:19;;;;;;;9.73;5.30;;;30.00;91.90;;;;;;4223006;28;20044;-76
2021/11/08 08:59:24;;;;;;;9.85;5.63;;;29.80;91.70;;;;;;4221562;28;20052;-74
2021/11/08 09:01:29;;;;;;;13.48;6.00;;;29.70;92.30;;;;;;4205168;28;20078;-75
2021/11/08 09:03:34;;;;;;;14.52;5.90;;;29.60;92.90;;;;;;4220277;28;20035;-74
2021/11/08 09:05:41;;;;;;;9.77;5.88;;;29.60;93.50;;;;;;4222856;28;20051;-74
2021/11/08 09:07:46;;;;;;;12.05;5.55;;;29.50;93.70;;;;;;4223870;28;20104;-75
2021/11/08 09:09:50;;;;;;;10.50;5.75;;;29.50;94.00;;;;;;4222361;28;20040;-75
2021/11/08 09:11:55;;;;;;;10.00;6.07;;;29.50;94.30;;;;;;4219952;28;20055;-75
2021/11/08 09:14:00;;;;;;;10.77;6.28;;;29.40;94.10;;;;;;4224992;28;20040;-75
2021/11/08 09:16:11;;;;;;;11.57;6.20;;;29.40;94.00;;;;;;4225161;28;20036;-74
2021/11/08 09:18:16;;;;;;;10.48;6.18;;;29.30;94.00;;;;;;4210749;28;20061;-76
2021/11/08 09:20:21;;;;;;;11.02;6.90;;;29.30;94.00;;;;;;4223570;28;20051;-75
2021/11/08 09:22:28;;;;;;;10.88;7.22;;;29.30;94.00;;;;;;4226594;28;20043;-74
2021/11/08 09:24:33;;;;;;;14.38;7.40;;;29.10;94.20;;;;;;4227659;28;20465;-75
2021/11/08 09:26:38;;;;;;;10.43;7.05;;;28.80;94.70;;;;;;4225155;28;20040;-74
2021/11/08 09:28:43;;;;;;;16.23;7.38;;;28.90;94.70;;;;;;4222497;28;20031;-76
2021/11/08 09:30:48;;;;;;;12.13;7.85;;;28.80;95.00;;;;;;4223717;28;20048;-73
2021/11/08 09:32:53;;;;;;;11.07;6.85;;;28.70;95.20;;;;;;4219279;28;20039;-74
2021/11/08 09:34:58;;;;;;;12.77;6.15;;;28.70;94.90;;;;;;4219631;28;20389;-73
2021/11/08 09:37:03;;;;;;;13.45;6.70;;;28.70;95.20;;;;;;4222273;28;20419;-73
2021/11/08 09:39:21;;;;;;;14.18;7.32;;;28.70;95.20;;;;;;4221199;28;20063;-74
2021/11/08 09:41:35;;;;;;;18.13;7.65;;;28.70;95.20;;;;;;4222735;28;20153;-74
2021/11/08 09:43:40;;;;;;;13.77;7.13;;;28.70;95.10;;;;;;4221054;28;20047;-74
2021/11/08 09:45:44;;;;;;;17.65;7.97;;;28.60;95.30;;;;;;4221501;28;20048;-74
2021/11/08 09:47:49;;;;;;;14.02;8.52;;;28.60;95.30;;;;;;4226217;28;20134;-74
2021/11/08 09:49:55;;;;;;;10.93;7.45;;;28.50;95.50;;;;;;4199981;28;20052;-74
2021/11/08 09:51:59;;;;;;;14.43;7.05;;;28.40;95.50;;;;;;4221411;28;20048;-74
2021/11/08 09:54:04;;;;;;;15.10;8.18;;;28.50;95.40;;;;;;4218524;28;20570;-73
2021/11/08 09:56:09;;;;;;;13.80;7.47;;;28.50;95.60;;;;;;4205113;28;20082;-74
2021/11/08 09:58:28;;;;;;;11.45;7.57;;;28.50;95.60;;;;;;4221984;28;20160;-74
2021/11/08 10:00:52;;;;;;;12.20;6.82;;;28.50;95.70;;;;;;4224615;28;20545;-75
2021/11/08 10:02:59;;;;;;;10.82;6.40;;;28.50;95.80;;;;;;4222119;28;20407;-73
2021/11/08 10:05:04;;;;;;;13.85;6.88;;;28.60;95.60;;;;;;4219915;28;20307;-74
2021/11/08 10:07:09;;;;;;;11.60;6.65;;;28.60;95.60;;;;;;4203338;28;20101;-75
2021/11/08 10:09:13;;;;;;;14.82;6.68;;;28.40;95.90;;;;;;4221601;28;20047;-75
2021/11/08 10:11:18;;;;;;;12.30;6.15;;;28.40;96.00;;;;;;4221748;28;20085;-73
2021/11/08 10:13:25;;;;;;;13.13;7.13;;;28.50;96.00;;;;;;4217885;28;20059;-73
2021/11/08 10:15:29;;;;;;;14.27;6.93;;;28.60;95.90;;;;;;4217116;28;20073;-72
2021/11/08 10:17:34;;;;;;;11.50;7.05;;;28.60;96.10;;;;;;4223588;28;20051;-74
2021/11/08 10:19:40;;;;;;;16.55;8.15;;;28.40;96.40;;;;;;4222002;28;20494;-74
2021/11/08 10:21:46;;;;;;;15.93;8.18;;;28.40;96.40;;;;;;4218062;28;20533;-75
2021/11/08 10:23:52;;;;;;;19.10;8.10;;;28.50;96.40;;;;;;4219452;28;20409;-74
2021/11/08 10:25:56;;;;;;;14.43;7.43;;;28.30;96.90;;;;;;4215320;28;20441;-70
2021/11/08 10:28:10;;;;;;;16.40;7.68;;;28.30;97.10;;;;;;4218965;28;20162;-70
2021/11/08 10:30:29;;;;;;;21.38;8.40;;;28.30;97.10;;;;;;4217568;28;20456;-70
2021/11/08 10:32:34;;;;;;;16.35;7.47;;;28.30;97.20;;;;;;4220590;28;20035;-70
2021/11/08 10:34:53;;;;;;;13.45;7.15;;;28.30;97.30;;;;;;4218565;28;20035;-70
2021/11/08 10:37:07;;;;;;;12.80;7.30;;;27.90;98.10;;;;;;4217922;28;20069;-72
2021/11/08 10:39:16;;;;;;;11.15;7.05;;;27.90;98.30;;;;;;4199966;28;20516;-72
2021/11/08 10:41:22;;;;;;;11.10;6.95;;;28.00;98.20;;;;;;4222199;28;20043;-71
2021/11/08 10:43:43;;;;;;;16.17;8.45;;;27.90;98.50;;;;;;4205344;28;20099;-72
2021/11/08 10:45:49;;;;;;;19.90;9.57;;;27.80;98.70;;;;;;4221170;28;20051;-72
2021/11/08 10:48:05;;;;;;;17.27;9.27;;;27.80;98.80;;;;;;4222565;28;20039;-73
2021/11/08 10:50:17;;;;;;;19.60;9.35;;;27.90;98.30;;;;;;4198945;28;20036;-70
2021/11/08 10:52:27;;;;;;;18.50;8.38;;;27.90;98.10;;;;;;4217260;28;20525;-73
2021/11/08 10:54:34;;;;;;;17.27;8.45;;;28.10;97.90;;;;;;4203079;28;20048;-71
2021/11/08 10:56:48;;;;;;;14.05;7.72;;;28.20;97.60;;;;;;4198251;28;20055;-72
2021/11/08 10:58:54;;;;;;;12.65;7.47;;;28.30;97.40;;;;;;4216248;28;20051;-71
2021/11/08 11:01:01;;;;;;;14.98;8.40;;;28.40;97.20;;;;;;4218188;28;20143;-71
2021/11/08 11:03:16;;;;;;;15.68;8.55;;;28.40;97.20;;;;;;4216133;28;20081;-71
2021/11/08 11:05:22;;;;;;;21.52;9.25;;;28.40;97.00;;;;;;4217625;28;20052;-73
2021/11/08 11:07:30;;;;;;;13.75;8.93;;;28.30;97.10;;;;;;4218460;28;20067;-71
2021/11/08 11:09:36;;;;;;;14.80;8.30;;;28.30;97.10;;;;;;4216144;28;20059;-71
2021/11/08 11:11:41;;;;;;;14.88;7.75;;;28.30;97.10;;;;;;4218862;28;20101;-72
2021/11/08 11:13:53;;;;;;;14.82;7.90;;;28.30;96.90;;;;;;4223929;28;20043;-69
2021/11/08 11:16:02;;;;;;;17.67;8.23;;;28.20;97.10;;;;;;4218132;28;20406;-74
2021/11/08 11:18:08;;;;;;;14.18;7.72;;;28.10;97.20;;;;;;4217444;28;20131;-71
2021/11/08 11:20:18;;;;;;;14.30;7.45;;;28.00;97.60;;;;;;4183627;28;20075;-71
2021/11/08 11:22:24;;;;;;;15.23;7.93;;;28.00;97.60;;;;;;4216806;28;20044;-71
2021/11/08 11:24:48;;;;;;;13.35;8.48;;;28.10;97.50;;;;;;4218497;28;20056;-72
2021/11/08 11:26:53;;;;;;;16.15;8.10;;;28.00;97.50;;;;;;4217178;28;20071;-70
2021/11/08 11:28:57;;;;;;;12.55;8.63;;;28.10;97.30;;;;;;4216235;28;20031;-72
2021/11/08 11:31:19;;;;;;;16.88;9.77;;;28.20;97.30;;;;;;4215446;28;20074;-72
2021/11/08 11:33:26;;;;;;;20.95;10.18;;;28.20;97.30;;;;;;4217308;28;20051;-73
2021/11/08 11:35:33;;;;;;;19.17;10.10;;;28.20;97.30;;;;;;4208709;28;20044;-72
2021/11/08 11:37:38;;;;;;;15.90;10.60;;;28.20;97.20;;;;;;4199444;28;20613;-71
2021/11/08 11:39:43;;;;;;;19.38;11.27;;;28.20;97.30;;;;;;4216317;28;20040;-72
2021/11/08 11:41:48;;;;;;;20.25;11.85;;;28.20;97.40;;;;;;4207463;28;20122;-73
2021/11/08 11:44:00;;;;;;;17.17;10.98;;;28.20;97.30;;;;;;4220529;28;20043;-73
2021/11/08 11:46:09;;;;;;;20.13;11.40;;;28.30;97.30;;;;;;4217241;28;20052;-73
2021/11/08 11:48:14;;;;;;;19.45;11.07;;;28.30;97.30;;;;;;4217725;28;20517;-72
2021/11/08 11:50:38;;;;;;;20.35;11.23;;;28.40;97.20;;;;;;4209676;28;20402;-73
2021/11/08 11:52:43;;;;;;;17.30;11.10;;;28.40;97.30;;;;;;4212042;28;20048;-73
2021/11/08 11:54:48;;;;;;;18.35;11.93;;;28.40;97.50;;;;;;4204865;28;20044;-73
2021/11/08 11:56:53;;;;;;;19.30;11.85;;;28.40;97.50;;;;;;4216317;28;20055;-73
2021/11/08 11:58:58;;;;;;;20.60;12.38;;;28.40;97.70;;;;;;4215687;28;20405;-72
2021/11/08 12:01:04;;;;;;;19.98;12.27;;;28.40;97.80;;;;;;4209247;28;20044;-73
2021/11/08 12:03:08;;;;;;;19.13;12.55;;;28.40;98.00;;;;;;4219010;28;20085;-72
2021/11/08 12:05:14;;;;;;;20.88;13.02;;;28.40;98.20;;;;;;4217263;28;20055;-73
2021/11/08 12:07:21;;;;;;;26.98;14.18;;;28.30;98.30;;;;;;4213416;28;20055;-72
2021/11/08 12:09:26;;;;;;;22.33;13.38;;;28.30;98.50;;;;;;4199030;28;20044;-72
2021/11/08 12:11:32;;;;;;;33.63;17.48;;;28.30;98.60;;;;;;4207150;28;20060;-73
2021/11/08 12:13:41;;;;;;;40.53;23.50;;;28.30;98.40;;;;;;4212816;28;20406;-73
2021/11/08 12:15:46;;;;;;;43.90;25.20;;;28.30;98.10;;;;;;4197447;28;20043;-73
2021/11/08 12:17:50;;;;;;;45.78;24.98;;;28.30;98.00;;;;;;4212715;28;20136;-73
2021/11/08 12:19:55;;;;;;;42.58;24.40;;;28.30;97.80;;;;;;4219852;28;20082;-74
2021/11/08 12:22:29;;;;;;;45.72;25.10;;;28.30;97.60;;;;;;4176347;28;20044;-73
2021/11/08 12:24:34;;;;;;;44.85;24.67;;;28.30;97.60;;;;;;4216409;28;20576;-73
2021/11/08 12:26:40;;;;;;;46.13;27.63;;;28.30;97.70;;;;;;4198392;28;20105;-73
2021/11/08 12:28:47;;;;;;;43.42;26.80;;;28.30;97.70;;;;;;4198261;28;20265;-73
2021/11/08 12:31:00;;;;;;;50.25;29.92;;;28.30;98.00;;;;;;4210321;28;20089;-73
2021/11/08 12:33:21;;;;;;;50.38;28.02;;;28.30;98.00;;;;;;4214741;28;20079;-72
2021/11/08 12:35:34;;;;;;;104.25;62.70;;;28.30;97.90;;;;;;4214771;28;20054;-74
2021/11/08 12:37:39;;;;;;;127.75;79.32;;;28.30;98.00;;;;;;4198141;28;20093;-74
2021/11/08 12:40:01;;;;;;;184.50;121.70;;;28.30;98.30;;;;;;4217330;28;20048;-75
2021/11/08 12:42:08;;;;;;;229.98;152.63;;;28.10;98.30;;;;;;4196471;28;20048;-73
2021/11/08 12:44:14;;;;;;;170.70;112.38;;;28.20;98.10;;;;;;4187716;28;20060;-74
2021/11/08 12:46:20;;;;;;;85.97;55.97;;;28.20;98.10;;;;;;4197138;28;20452;-72
2021/11/08 12:48:32;;;;;;;94.15;62.85;;;28.20;98.10;;;;;;4220054;28;20047;-73
2021/11/08 12:50:54;;;;;;;38.75;26.95;;;28.20;98.20;;;;;;4209984;28;20040;-74
2021/11/08 12:52:59;;;;;;;38.28;25.85;;;28.20;98.20;;;;;;4212900;28;20055;-73
2021/11/08 12:55:12;;;;;;;28.48;17.48;;;28.20;98.20;;;;;;4218521;28;20102;-72
2021/11/08 12:57:18;;;;;;;23.08;14.38;;;28.30;98.20;;;;;;4211422;28;20036;-74
2021/11/08 12:59:24;;;;;;;24.10;14.07;;;28.20;98.20;;;;;;4214106;28;20060;-73
2021/11/08 13:01:40;;;;;;;22.95;14.27;;;28.20;98.20;;;;;;4196696;28;20628;-74
2021/11/08 13:03:51;;;;;;;19.77;12.63;;;28.20;98.20;;;;;;4179671;28;20090;-74
2021/11/08 13:05:58;;;;;;;22.23;12.38;;;28.20;98.00;;;;;;4213543;28;20044;-72
2021/11/08 13:08:02;;;;;;;17.17;10.65;;;28.20;97.70;;;;;;4215695;28;20498;-72
2021/11/08 13:10:21;;;;;;;16.73;9.30;;;28.10;97.40;;;;;;4211820;28;20066;-74
2021/11/08 13:12:40;;;;;;;13.38;7.88;;;28.10;96.70;;;;;;4194867;28;20398;-73